Time;durP1;ratioP1;P1;durP2;ratioP2;P2;SDS_P1;SDS_P2;PMS_P1;PMS_P2;Temp;Humidity;BMP_temperature;BMP_pressure;BME280_temperature;BME280_humidity;BME280_pressure;Samples;Min_cycle;Max_cycle;Signal;HPM_P1;HPM_P2
2022/02/26 00:02:06;;;;;;;5.68;4.43;;;;;;;1.96;100.00;97405.41;4993171;28;20094;-50
2022/02/26 00:04:38;;;;;;;6.00;4.57;;;;;;;1.98;100.00;97409.63;4989169;28;20074;-54
2022/02/26 00:07:08;;;;;;;5.78;5.18;;;;;;;1.99;100.00;97410.47;4987757;28;20081;-53
2022/02/26 00:09:37;;;;;;;6.45;5.03;;;;;;;2.07;100.00;97408.38;4986928;28;20486;-48
2022/02/26 00:12:06;;;;;;;6.47;4.43;;;;;;;2.06;100.00;97420.53;4995261;28;20066;-48
2022/02/26 00:14:34;;;;;;;8.07;5.38;;;;;;;2.21;100.00;97412.97;4988076;28;20078;-53
2022/02/26 00:17:03;;;;;;;11.57;4.78;;;;;;;2.10;100.00;97419.50;4989572;28;20077;-54
2022/02/26 00:19:33;;;;;;;7.80;5.10;;;;;;;2.12;100.00;97422.84;4988715;28;20160;-54
2022/02/26 00:22:01;;;;;;;7.73;4.60;;;;;;;2.18;100.00;97420.91;4992106;28;20068;-49
2022/02/26 00:24:31;;;;;;;7.13;5.10;;;;;;;2.15;100.00;97421.88;4984341;28;20070;-52
2022/02/26 00:27:00;;;;;;;;;;;;;;;2.24;100.00;97426.69;4985272;28;20074;-48
2022/02/26 00:29:28;;;;;;;7.22;4.28;;;;;;;2.21;100.00;97423.38;4992153;28;19961;-51
2022/02/26 00:31:57;;;;;;;9.00;5.32;;;;;;;2.31;100.00;97440.25;4989016;28;20555;-51
2022/02/26 00:34:25;;;;;;;8.90;5.47;;;;;;;2.33;100.00;97435.81;4988388;28;20069;-51
2022/02/26 00:36:54;;;;;;;9.60;5.03;;;;;;;2.35;100.00;97436.59;4990988;28;20077;-53
2022/02/26 00:39:22;;;;;;;8.23;5.72;;;;;;;2.41;100.00;97438.94;4978353;28;20074;-52
2022/02/26 00:41:52;;;;;;;7.82;5.50;;;;;;;2.38;100.00;97446.88;4967060;28;20077;-52
2022/02/26 00:44:20;;;;;;;8.45;5.68;;;;;;;2.32;100.00;97452.34;4968788;28;20078;-53
2022/02/26 00:46:49;;;;;;;9.38;5.68;;;;;;;2.43;100.00;97457.06;4987267;28;21431;-54
2022/02/26 00:52:04;;;;;;;12.68;6.05;;;;;;;2.38;100.00;97459.88;4967465;28;20456;-51
2022/02/26 00:54:33;;;;;;;7.25;5.30;;;;;;;2.32;100.00;97462.75;4977721;28;20088;-56
2022/02/26 00:57:03;;;;;;;11.07;5.55;;;;;;;2.30;100.00;97462.81;4993296;28;20089;-55
2022/02/26 00:59:32;;;;;;;8.75;5.50;;;;;;;2.36;100.00;97464.31;4970901;28;20070;-51
2022/02/26 01:02:00;;;;;;;6.70;5.10;;;;;;;2.37;100.00;97459.03;4972339;28;20458;-49
2022/02/26 01:04:34;;;;;;;8.02;5.45;;;;;;;2.34;100.00;97461.78;4966258;28;20066;-52
2022/02/26 01:07:04;;;;;;;6.35;5.30;;;;;;;2.33;100.00;97472.25;4960830;28;20058;-55
2022/02/26 01:09:32;;;;;;;9.55;5.65;;;;;;;2.36;100.00;97470.34;4966482;28;20178;-48
2022/02/26 01:12:03;;;;;;;8.40;5.28;;;;;;;2.37;100.00;97479.00;4965346;28;20086;-51
2022/02/26 01:14:33;;;;;;;8.02;5.25;;;;;;;2.44;100.00;97480.41;4979706;28;20082;-49
2022/02/26 01:17:04;;;;;;;12.30;5.78;;;;;;;2.41;100.00;97479.72;4969557;28;20094;-52
2022/02/26 01:19:32;;;;;;;10.57;5.60;;;;;;;2.55;100.00;97482.56;4966515;28;20077;-55
2022/02/26 01:22:01;;;;;;;7.93;5.50;;;;;;;2.46;100.00;97488.16;4970075;28;20073;-50
2022/02/26 01:24:29;;;;;;;9.50;6.00;;;;;;;2.51;100.00;97489.66;4987424;28;20065;-48
2022/02/26 01:27:00;;;;;;;9.85;5.80;;;;;;;2.46;100.00;97493.38;4973328;28;20076;-48
2022/02/26 01:29:30;;;;;;;7.43;5.13;;;;;;;2.43;100.00;97494.34;4985449;28;20620;-48
2022/02/26 01:32:00;;;;;;;10.90;5.90;;;;;;;2.43;100.00;97493.50;4986649;28;20074;-50
2022/02/26 01:34:35;;;;;;;8.73;5.70;;;;;;;2.37;100.00;97489.41;4997997;28;20068;-48
2022/02/26 01:37:05;;;;;;;9.20;5.22;;;;;;;2.35;100.00;97492.09;4984534;28;20062;-50
2022/02/26 01:39:34;;;;;;;10.88;5.82;;;;;;;2.38;100.00;97493.72;4975819;28;20077;-48
2022/02/26 01:42:04;;;;;;;8.10;5.25;;;;;;;2.41;100.00;97488.38;4965356;28;20062;-55
2022/02/26 01:44:37;;;;;;;5.80;5.18;;;;;;;2.31;100.00;97494.91;4968991;28;20561;-49
2022/02/26 01:47:07;;;;;;;10.55;5.65;;;;;;;2.33;100.00;97496.50;4974630;28;20109;-50
2022/02/26 01:49:36;;;;;;;8.27;5.45;;;;;;;2.38;100.00;97494.56;4965462;28;20057;-57
2022/02/26 01:52:07;;;;;;;9.93;6.15;;;;;;;2.37;100.00;97490.28;4963625;28;20522;-47
2022/02/26 01:54:35;;;;;;;10.02;6.32;;;;;;;2.47;100.00;97501.09;4967119;28;20445;-51
2022/02/26 01:57:05;;;;;;;11.65;5.40;;;;;;;2.41;100.00;97503.13;4964589;28;20490;-52
2022/02/26 01:59:35;;;;;;;8.98;5.35;;;;;;;2.40;100.00;97498.84;4966465;28;20078;-48
2022/02/26 02:02:04;;;;;;;7.18;5.72;;;;;;;2.44;100.00;97492.59;4965510;28;20086;-48
2022/02/26 02:04:35;;;;;;;8.15;5.45;;;;;;;2.53;100.00;97498.22;4996321;28;20059;-50
2022/02/26 02:07:04;;;;;;;9.55;6.18;;;;;;;2.54;100.00;97493.84;4968351;28;20117;-48
2022/02/26 02:09:33;;;;;;;9.15;6.00;;;;;;;2.59;100.00;97492.75;4974669;28;20078;-53
2022/02/26 02:12:01;;;;;;;8.40;5.35;;;;;;;2.44;100.00;97493.44;4987329;28;20070;-54
2022/02/26 02:14:30;;;;;;;12.27;5.65;;;;;;;2.49;100.00;97495.84;4990384;28;20069;-52
2022/02/26 02:17:01;;;;;;;10.82;6.00;;;;;;;2.46;100.00;97502.03;4991569;28;20559;-51
2022/02/26 02:19:30;;;;;;;9.00;5.25;;;;;;;2.46;100.00;97507.22;4984896;28;20065;-48
2022/02/26 02:22:05;;;;;;;8.02;5.38;;;;;;;2.38;100.00;97507.59;4986416;28;20401;-51
2022/02/26 02:24:34;;;;;;;8.25;5.55;;;;;;;2.51;100.00;97507.00;5000153;28;20058;-51
2022/02/26 02:27:03;;;;;;;8.23;5.38;;;;;;;2.52;100.00;97512.16;4983177;28;20073;-50
2022/02/26 02:29:32;;;;;;;11.25;5.70;;;;;;;2.58;100.00;97514.50;4991693;28;20085;-56
2022/02/26 02:32:01;;;;;;;8.43;5.97;;;;;;;2.61;100.00;97510.91;4989401;28;20070;-56
2022/02/26 02:34:34;;;;;;;5.82;5.22;;;;;;;2.57;100.00;97511.94;4963380;28;20046;-50
2022/02/26 02:37:07;;;;;;;9.15;4.97;;;;;;;2.44;100.00;97516.84;4965084;28;21342;-52
2022/02/26 02:39:36;;;;;;;7.90;5.25;;;;;;;2.44;100.00;97511.66;4967012;28;20067;-48
2022/02/26 02:42:04;;;;;;;6.30;5.32;;;;;;;2.45;100.00;97507.31;4964726;28;20066;-49
2022/02/26 02:44:33;;;;;;;6.72;5.10;;;;;;;2.35;100.00;97512.06;4966178;28;20070;-51
2022/02/26 02:47:02;;;;;;;7.97;5.32;;;;;;;2.30;100.00;97511.41;4979038;28;20484;-50
2022/02/26 02:49:31;;;;;;;6.15;5.30;;;;;;;2.24;100.00;97509.94;4968125;28;20073;-51
2022/02/26 02:51:59;;;;;;;8.38;5.25;;;;;;;2.20;100.00;97507.53;4962143;28;20067;-55
2022/02/26 02:54:29;;;;;;;8.18;5.20;;;;;;;2.20;100.00;97512.75;4972553;28;20104;-55
2022/02/26 02:56:58;;;;;;;7.30;5.30;;;;;;;2.22;100.00;97516.13;4980187;28;20124;-49
2022/02/26 02:59:26;;;;;;;8.18;5.10;;;;;;;2.20;100.00;97516.19;4966078;28;20090;-54
2022/02/26 03:01:55;;;;;;;6.90;5.20;;;;;;;2.20;100.00;97517.94;4987316;28;20054;-49
2022/02/26 03:04:26;;;;;;;10.70;5.53;;;;;;;2.22;100.00;97516.13;4986663;28;20080;-52
2022/02/26 03:06:55;;;;;;;10.63;5.32;;;;;;;2.24;100.00;97522.97;4999718;28;20070;-49
2022/02/26 03:09:24;;;;;;;5.45;4.80;;;;;;;2.12;100.00;97524.31;4999832;28;20440;-54
2022/02/26 03:11:54;;;;;;;8.68;5.22;;;;;;;2.17;100.00;97523.28;4985311;28;20069;-51
2022/02/26 03:14:22;;;;;;;8.15;5.57;;;;;;;2.16;100.00;97522.44;4989902;28;20520;-51
2022/02/26 03:16:51;;;;;;;7.40;5.50;;;;;;;2.10;100.00;97526.16;4988545;28;20062;-55
2022/02/26 03:19:20;;;;;;;9.45;5.20;;;;;;;2.13;100.00;97526.03;4966582;28;20081;-50
2022/02/26 03:21:49;;;;;;;7.22;5.32;;;;;;;2.18;100.00;97530.19;4978916;28;20066;-59
2022/02/26 03:24:17;;;;;;;6.95;5.22;;;;;;;2.12;100.00;97534.75;4962461;28;20446;-51
2022/02/26 03:26:50;;;;;;;12.57;4.75;;;;;;;2.06;100.00;97540.19;4965465;28;20074;-49
2022/02/26 03:29:20;;;;;;;10.73;5.30;;;;;;;2.19;100.00;97550.09;4963309;28;20079;-49
2022/02/26 03:31:48;;;;;;;9.65;5.55;;;;;;;2.13;100.00;97549.47;4965474;28;20483;-51
2022/02/26 03:34:17;;;;;;;10.10;5.82;;;;;;;2.22;100.00;97553.41;4981666;28;20073;-48
2022/02/26 03:36:45;;;;;;;7.70;5.63;;;;;;;2.22;100.00;97570.78;4975805;28;20062;-52
2022/02/26 03:39:14;;;;;;;10.75;6.00;;;;;;;2.28;100.00;97560.13;4967384;28;20128;-53
2022/02/26 03:41:43;;;;;;;6.78;5.10;;;;;;;2.35;100.00;97569.34;4973320;28;20070;-49
2022/02/26 03:44:11;;;;;;;8.90;5.47;;;;;;;2.24;100.00;97569.81;4988843;28;20527;-50
2022/02/26 03:46:42;;;;;;;12.32;5.95;;;;;;;2.39;100.00;97565.69;4982859;28;20549;-57
2022/02/26 03:49:11;;;;;;;6.07;5.45;;;;;;;2.30;100.00;97566.91;4988636;28;20066;-54
2022/02/26 03:51:40;;;;;;;9.23;5.50;;;;;;;2.27;100.00;97567.09;4990058;28;20069;-54
2022/02/26 03:54:08;;;;;;;10.90;6.25;;;;;;;2.25;100.00;97563.69;4990428;28;20652;-49
2022/02/26 03:56:36;;;;;;;9.07;5.75;;;;;;;2.44;100.00;97562.88;4996195;28;20069;-51
2022/02/26 03:59:05;;;;;;;7.18;5.13;;;;;;;2.45;100.00;97578.44;4991806;28;20074;-52
2022/02/26 04:01:33;;;;;;;9.48;5.70;;;;;;;2.50;100.00;97588.66;4988954;28;20077;-54
2022/02/26 04:04:04;;;;;;;8.35;5.70;;;;;;;2.53;100.00;97591.97;4983389;28;20072;-52
2022/02/26 04:06:33;;;;;;;9.13;5.70;;;;;;;2.65;100.00;97589.72;4989176;28;20065;-48
2022/02/26 04:09:02;;;;;;;10.95;5.63;;;;;;;2.63;100.00;97591.56;4987548;28;20070;-58
2022/02/26 04:11:30;;;;;;;11.07;6.00;;;;;;;2.69;100.00;97604.31;4991207;28;20070;-54
2022/02/26 04:13:59;;;;;;;12.18;6.07;;;;;;;2.54;100.00;97598.84;4990284;28;20089;-49
2022/02/26 04:16:27;;;;;;;11.60;5.93;;;;;;;2.47;100.00;97600.03;4990783;28;20531;-57
2022/02/26 04:18:56;;;;;;;9.90;4.97;;;;;;;2.33;100.00;97605.00;4988197;28;20066;-57
2022/02/26 04:21:26;;;;;;;6.80;5.40;;;;;;;2.26;100.00;97603.56;4982607;28;20050;-52
2022/02/26 04:23:54;;;;;;;8.40;5.55;;;;;;;2.23;100.00;97603.69;4965578;28;20062;-51
2022/02/26 04:26:23;;;;;;;6.15;5.43;;;;;;;2.23;100.00;97603.69;4966593;28;20069;-49
2022/02/26 04:28:53;;;;;;;10.55;5.05;;;;;;;2.25;100.00;97607.94;4969854;28;20552;-58
2022/02/26 04:31:21;;;;;;;9.15;5.55;;;;;;;2.23;100.00;97611.50;4964306;28;20478;-54
2022/02/26 04:33:52;;;;;;;7.10;5.90;;;;;;;2.31;100.00;97607.69;4970293;28;20095;-52
2022/02/26 04:36:20;;;;;;;8.82;6.50;;;;;;;2.32;100.00;97605.91;4968494;28;20098;-54
2022/02/26 04:38:50;;;;;;;8.68;6.07;;;;;;;2.34;100.00;97604.06;4965347;28;20514;-47
2022/02/26 04:41:19;;;;;;;7.70;5.70;;;;;;;2.26;100.00;97603.56;4968969;28;20090;-51
2022/02/26 04:43:47;;;;;;;9.85;5.70;;;;;;;2.38;100.00;97614.31;4993508;28;20222;-48
2022/02/26 04:46:16;;;;;;;8.80;5.88;;;;;;;2.41;100.00;97628.97;4992648;28;20077;-53
2022/02/26 04:48:44;;;;;;;8.43;5.80;;;;;;;2.38;100.00;97621.28;4986320;28;20066;-48
2022/02/26 04:51:13;;;;;;;9.52;5.80;;;;;;;2.33;100.00;97623.22;4990342;28;20074;-50
2022/02/26 04:53:41;;;;;;;6.65;5.70;;;;;;;2.35;100.00;97624.84;4991886;28;20101;-54
2022/02/26 04:56:11;;;;;;;6.93;5.43;;;;;;;2.33;100.00;97618.00;4990016;28;20092;-51
2022/02/26 04:58:40;;;;;;;9.25;5.70;;;;;;;2.28;100.00;97625.19;4989759;28;20071;-50
2022/02/26 05:01:08;;;;;;;7.55;5.40;;;;;;;2.30;100.00;97628.53;4990925;28;20073;-51
2022/02/26 05:03:37;;;;;;;8.50;5.45;;;;;;;2.34;100.00;97625.78;4992249;28;20513;-49
2022/02/26 05:06:06;;;;;;;6.93;5.70;;;;;;;2.35;100.00;97634.41;4992603;28;20074;-53
2022/02/26 05:08:34;;;;;;;10.80;5.97;;;;;;;2.34;100.00;97630.09;4987873;28;20069;-48
2022/02/26 05:11:03;;;;;;;9.75;6.13;;;;;;;2.39;100.00;97635.97;4962562;28;20074;-56
2022/02/26 05:13:33;;;;;;;7.95;5.55;;;;;;;2.30;100.00;97637.19;4969864;28;20584;-50
2022/02/26 05:16:04;;;;;;;7.68;5.70;;;;;;;2.27;100.00;97641.69;4965351;28;20594;-47
2022/02/26 05:18:33;;;;;;;9.65;6.05;;;;;;;2.38;100.00;97637.72;4965951;28;20062;-48
2022/02/26 05:21:02;;;;;;;7.85;6.60;;;;;;;2.35;100.00;97645.66;4965950;28;20839;-60
2022/02/26 05:23:30;;;;;;;11.60;5.90;;;;;;;2.31;100.00;97646.72;4963831;28;20058;-48
2022/02/26 05:25:59;;;;;;;7.03;5.80;;;;;;;2.30;100.00;97644.16;4969257;28;20066;-48
2022/02/26 05:28:27;;;;;;;10.05;5.97;;;;;;;2.31;100.00;97644.13;4992990;28;20080;-52
2022/02/26 05:30:57;;;;;;;6.97;5.65;;;;;;;2.29;100.00;97642.47;4987203;28;20084;-50
2022/02/26 05:33:31;;;;;;;8.60;5.97;;;;;;;2.25;100.00;97646.13;4985412;28;20069;-50
2022/02/26 05:36:00;;;;;;;8.60;6.10;;;;;;;2.31;100.00;97654.53;4988761;28;20066;-54
2022/02/26 05:38:29;;;;;;;10.75;6.20;;;;;;;2.26;100.00;97651.25;4988550;28;20069;-52
2022/02/26 05:40:58;;;;;;;9.90;6.32;;;;;;;2.36;100.00;97652.56;4988215;28;20065;-51
2022/02/26 05:43:26;;;;;;;10.35;5.82;;;;;;;2.35;100.00;97656.09;4992637;28;20068;-50
2022/02/26 05:45:54;;;;;;;11.15;5.93;;;;;;;2.40;100.00;97662.84;4991793;28;20069;-48
2022/02/26 05:48:24;;;;;;;8.60;5.95;;;;;;;2.43;100.00;97667.94;4987447;28;20062;-53
2022/02/26 05:50:53;;;;;;;8.30;5.90;;;;;;;2.38;100.00;97670.75;4990314;28;20082;-52
2022/02/26 05:53:21;;;;;;;10.18;6.43;;;;;;;2.46;100.00;97679.06;4988204;28;20159;-53
2022/02/26 05:55:50;;;;;;;7.43;6.00;;;;;;;2.40;100.00;97671.50;4989555;28;20077;-50
2022/02/26 05:58:18;;;;;;;10.50;6.50;;;;;;;2.45;100.00;97677.38;4989152;28;20080;-53
2022/02/26 06:00:48;;;;;;;10.70;6.70;;;;;;;2.43;100.00;97684.38;4984684;28;20085;-52
2022/02/26 06:03:17;;;;;;;10.73;6.30;;;;;;;2.39;100.00;97680.22;4980186;28;20077;-48
2022/02/26 06:05:47;;;;;;;9.18;6.45;;;;;;;2.44;100.00;97683.47;4971222;28;20108;-53
2022/02/26 06:08:19;;;;;;;9.65;6.10;;;;;;;2.44;100.00;97690.44;4972170;28;20445;-50
2022/02/26 06:10:47;;;;;;;11.02;6.10;;;;;;;2.51;100.00;97687.53;4981582;28;20405;-58
2022/02/26 06:13:16;;;;;;;8.88;6.32;;;;;;;2.56;100.00;97685.56;4987108;28;20524;-49
2022/02/26 06:15:44;;;;;;;8.77;6.18;;;;;;;2.40;100.00;97694.94;4986014;28;20068;-48
2022/02/26 06:18:13;;;;;;;11.90;6.50;;;;;;;2.46;100.00;97704.25;4985188;28;20069;-55
2022/02/26 06:20:41;;;;;;;9.73;6.00;;;;;;;2.51;100.00;97702.28;4987111;28;20137;-52
2022/02/26 06:23:11;;;;;;;10.63;6.40;;;;;;;2.48;100.00;97700.69;4992776;28;20085;-49
2022/02/26 06:25:39;;;;;;;9.52;6.38;;;;;;;2.54;100.00;97703.00;4987195;28;20073;-50
2022/02/26 06:28:08;;;;;;;9.68;5.75;;;;;;;2.55;100.00;97707.31;4991238;28;20077;-53
2022/02/26 06:30:36;;;;;;;9.48;6.10;;;;;;;2.63;100.00;97716.56;4987040;28;20101;-55
2022/02/26 06:33:05;;;;;;;12.20;6.75;;;;;;;2.66;100.00;97716.44;4986682;28;20065;-49
2022/02/26 06:35:33;;;;;;;8.32;6.45;;;;;;;2.62;100.00;97726.13;4985977;28;20082;-48
2022/02/26 06:38:02;;;;;;;8.43;6.40;;;;;;;2.61;100.00;97727.03;4990966;28;20085;-57
2022/02/26 06:40:32;;;;;;;8.77;6.28;;;;;;;2.61;100.00;97732.25;4967046;28;20063;-48
2022/02/26 06:43:00;;;;;;;10.02;6.47;;;;;;;2.56;100.00;97723.78;4965114;28;20521;-48
2022/02/26 06:45:29;;;;;;;6.80;5.15;;;;;;;2.51;100.00;97736.13;4960747;28;20063;-51
2022/02/26 06:47:58;;;;;;;7.40;6.57;;;;;;;2.56;100.00;97731.59;4965098;28;20085;-48
2022/02/26 06:50:26;;;;;;;12.20;6.63;;;;;;;2.72;100.00;97739.59;4965113;28;20053;-60
2022/02/26 06:52:55;;;;;;;6.13;5.03;;;;;;;2.60;100.00;97728.78;4968756;28;20086;-63
2022/02/26 06:55:23;;;;;;;10.35;6.00;;;;;;;2.80;100.00;97742.75;4963862;28;20540;-58
2022/02/26 06:57:53;;;;;;;7.30;6.15;;;;;;;2.68;100.00;97746.69;4964024;28;20074;-57
2022/02/26 07:00:23;;;;;;;11.07;6.32;;;;;;;2.74;100.00;97753.41;4962518;28;20074;-59
2022/02/26 07:02:51;;;;;;;9.27;6.90;;;;;;;2.93;100.00;97754.34;4964186;28;20047;-61
2022/02/26 07:05:20;;;;;;;8.35;4.30;;;;;;;2.68;100.00;97749.31;4957709;28;20082;-62
2022/02/26 07:07:49;;;;;;;7.07;4.70;;;;;;;2.61;100.00;97758.28;4989341;28;22275;-59
2022/02/26 07:10:17;;;;;;;5.80;4.60;;;;;;;2.56;100.00;97768.91;4984224;28;20074;-60
2022/02/26 07:12:45;;;;;;;9.63;5.18;;;;;;;2.67;100.00;97773.66;4984403;28;20292;-61
2022/02/26 07:15:15;;;;;;;9.65;5.63;;;;;;;2.70;100.00;97770.09;4993962;28;20082;-62
2022/02/26 07:17:44;;;;;;;8.27;5.65;;;;;;;2.66;100.00;97771.97;4991777;28;20034;-57
2022/02/26 07:20:13;;;;;;;11.05;6.22;;;;;;;2.67;100.00;97778.03;4991207;28;20089;-61
2022/02/26 07:22:42;;;;;;;10.15;6.57;;;;;;;2.66;100.00;97778.94;4987933;28;20610;-65
2022/02/26 07:25:10;;;;;;;10.20;5.55;;;;;;;2.72;100.00;97786.47;4990573;28;20078;-59
2022/02/26 07:27:41;;;;;;;10.98;6.13;;;;;;;2.88;100.00;97784.94;4983934;28;20580;-59
2022/02/26 07:30:11;;;;;;;8.27;5.68;;;;;;;2.75;100.00;97788.97;4981627;28;20085;-61
2022/02/26 07:32:41;;;;;;;6.95;5.00;;;;;;;2.79;100.00;97787.94;4964809;28;20086;-61
2022/02/26 07:35:10;;;;;;;8.95;5.95;;;;;;;2.90;100.00;97798.75;4973345;28;20078;-62
2022/02/26 07:37:38;;;;;;;10.52;6.40;;;;;;;3.18;100.00;97793.22;4992605;28;20082;-62
2022/02/26 07:40:08;;;;;;;12.13;6.47;;;;;;;3.06;100.00;97805.03;4992926;28;20073;-62
2022/02/26 07:42:37;;;;;;;5.10;4.68;;;;;;;3.01;100.00;97799.16;4992649;28;20081;-61
2022/02/26 07:45:06;;;;;;;13.68;6.53;;;;;;;3.31;100.00;97801.38;4987575;28;20086;-58
2022/02/26 07:47:34;;;;;;;10.50;6.80;;;;;;;3.12;100.00;97801.28;4995147;28;20507;-61
2022/02/26 07:50:05;;;;;;;9.77;6.65;;;;;;;3.30;100.00;97803.13;4989627;28;20074;-60
2022/02/26 07:52:33;;;;;;;;;;;;;;;3.04;100.00;97809.44;4996805;28;20073;-62
2022/02/26 07:55:03;;;;;;;5.82;4.95;;;;;;;3.02;100.00;97819.06;4992768;28;19957;-60
2022/02/26 07:57:32;;;;;;;7.65;6.15;;;;;;;3.45;100.00;97817.25;4989445;28;20081;-58
2022/02/26 08:00:00;;;;;;;11.77;6.95;;;;;;;3.54;100.00;97821.19;4994044;28;20061;-57
2022/02/26 08:02:29;;;;;;;14.63;7.18;;;;;;;3.65;100.00;97818.97;4991371;28;20077;-57
2022/02/26 08:04:57;;;;;;;13.63;7.50;;;;;;;3.53;100.00;97812.53;4994443;28;20069;-61
2022/02/26 08:07:27;;;;;;;17.10;6.80;;;;;;;3.56;100.00;97814.16;4989095;28;20069;-61
2022/02/26 08:09:56;;;;;;;13.38;7.78;;;;;;;3.57;100.00;97816.69;4996344;28;20073;-62
2022/02/26 08:12:24;;;;;;;12.80;6.78;;;;;;;3.98;100.00;97816.59;4978620;28;20514;-61
2022/02/26 08:14:54;;;;;;;15.32;6.93;;;;;;;4.01;100.00;97815.59;4966389;28;20062;-61
2022/02/26 08:17:23;;;;;;;12.13;6.72;;;;;;;4.01;100.00;97813.00;4966146;28;20526;-61
2022/02/26 08:19:51;;;;;;;12.95;7.07;;;;;;;4.39;100.00;97815.56;4993147;28;20074;-63
2022/02/26 08:22:20;;;;;;;12.50;6.80;;;;;;;4.46;100.00;97806.53;4973679;28;20070;-62
2022/02/26 08:24:50;;;;;;;10.35;6.50;;;;;;;4.60;100.00;97811.94;4982858;28;20074;-58
2022/02/26 08:27:18;;;;;;;13.45;6.88;;;;;;;4.57;100.00;97812.06;4994379;28;20064;-60
2022/02/26 08:29:47;;;;;;;11.55;6.50;;;;;;;4.60;100.00;97816.31;4986581;28;20059;-59
2022/02/26 08:32:15;;;;;;;11.50;5.93;;;;;;;4.29;100.00;97821.22;4962912;28;20109;-59
2022/02/26 08:34:44;;;;;;;11.07;6.50;;;;;;;4.45;100.00;97817.91;4988004;28;20076;-63
2022/02/26 08:37:13;;;;;;;11.07;5.50;;;;;;;4.22;100.00;97818.97;4987194;28;20121;-61
2022/02/26 08:39:46;;;;;;;11.25;6.22;;;;;;;4.34;100.00;97814.97;4975544;28;20082;-59
2022/02/26 08:42:16;;;;;;;11.60;5.68;;;;;;;4.57;100.00;97827.75;4970688;28;20085;-61
2022/02/26 08:44:44;;;;;;;13.07;5.67;;;;;;;4.30;100.00;97824.69;4987997;28;21248;-62
2022/02/26 08:47:13;;;;;;;7.45;5.30;;;;;;;4.81;100.00;97822.25;4990810;28;20519;-62
2022/02/26 08:49:41;;;;;;;9.85;4.97;;;;;;;4.48;100.00;97830.81;4995785;28;20093;-65
2022/02/26 08:52:10;;;;;;;11.38;5.60;;;;;;;4.54;100.00;97825.28;4991762;28;20070;-60
2022/02/26 08:54:38;;;;;;;8.77;4.78;;;;;;;4.62;100.00;97831.00;4986543;28;20073;-59
2022/02/26 08:57:07;;;;;;;7.50;4.32;;;;;;;4.33;100.00;97834.97;4988787;28;20067;-59
2022/02/26 08:59:37;;;;;;;8.20;5.28;;;;;;;5.00;100.00;97831.72;4992545;28;20089;-60
2022/02/26 09:02:09;;;;;;;10.18;5.50;;;;;;;4.87;100.00;97827.19;4975833;28;20084;-62
2022/02/26 09:04:38;;;;;;;10.87;5.83;;;;;;;5.07;100.00;97829.66;4966429;28;20066;-59
2022/02/26 09:07:09;;;;;;;9.82;5.20;;;;;;;4.95;100.00;97835.47;4979700;28;20556;-57
2022/02/26 09:09:37;;;;;;;21.88;7.38;;;;;;;4.99;100.00;97835.28;4975983;28;20405;-59
2022/02/26 09:12:07;;;;;;;10.95;4.43;;;;;;;4.99;100.00;97831.81;4967760;28;20517;-59
2022/02/26 09:14:37;;;;;;;11.27;5.10;;;;;;;5.06;100.00;97842.78;4967555;28;21584;-61
2022/02/26 09:17:06;;;;;;;8.65;5.13;;;;;;;5.25;100.00;97833.09;4970106;28;20046;-60
2022/02/26 09:19:36;;;;;;;8.05;4.50;;;;;;;5.11;100.00;97830.34;4965082;28;20089;-60
2022/02/26 09:22:05;;;;;;;8.30;5.07;;;;;;;4.97;100.00;97837.09;4980529;28;20070;-61
2022/02/26 09:24:33;;;;;;;6.63;4.80;;;;;;;5.19;100.00;97834.25;4991136;28;20073;-62
2022/02/26 09:27:02;;;;;;;11.50;5.47;;;;;;;5.18;100.00;97826.50;4991447;28;20073;-62
2022/02/26 09:29:31;;;;;;;9.15;5.25;;;;;;;5.10;100.00;97831.28;4985502;28;20176;-62
2022/02/26 09:32:02;;;;;;;9.90;4.50;;;;;;;5.16;100.00;97829.22;4967266;28;20098;-60
2022/02/26 09:34:30;;;;;;;8.40;4.90;;;;;;;5.34;100.00;97837.88;4989250;28;20078;-61
2022/02/26 09:36:59;;;;;;;4.88;4.07;;;;;;;5.17;100.00;97828.28;4984485;28;20058;-61
2022/02/26 09:39:27;;;;;;;10.88;5.55;;;;;;;5.48;100.00;97826.72;4987191;28;20325;-60
2022/02/26 09:41:57;;;;;;;6.55;4.15;;;;;;;5.43;100.00;97831.31;4989886;28;20078;-59
2022/02/26 09:44:26;;;;;;;6.85;4.22;;;;;;;5.51;100.00;97830.94;4993836;28;20081;-57
2022/02/26 09:46:56;;;;;;;9.45;5.00;;;;;;;5.85;100.00;97828.25;4989147;28;20608;-61
2022/02/26 09:49:26;;;;;;;8.43;4.55;;;;;;;5.84;100.00;97826.53;4989804;28;20073;-61
2022/02/26 09:51:59;;;;;;;8.50;4.68;;;;;;;6.32;100.00;97830.06;4986588;28;20053;-61
2022/02/26 09:54:28;;;;;;;8.63;4.82;;;;;;;6.46;100.00;97824.06;4976059;28;20556;-62
2022/02/26 09:56:56;;;;;;;8.10;4.95;;;;;;;7.22;100.00;97821.47;4965293;28;20067;-57
2022/02/26 09:59:25;;;;;;;7.13;3.97;;;;;;;7.17;100.00;97820.91;4962043;28;20089;-57
2022/02/26 10:01:58;;;;;;;7.60;3.60;;;;;;;6.68;100.00;97822.88;4967429;28;20085;-62
2022/02/26 10:04:29;;;;;;;6.32;3.95;;;;;;;6.88;100.00;97831.31;4985949;28;20070;-62
2022/02/26 10:07:11;;;;;;;7.03;4.38;;;;;;;6.30;100.00;97839.81;4987328;28;20062;-62
2022/02/26 10:09:40;;;;;;;5.88;3.97;;;;;;;6.45;100.00;97847.75;4986316;28;20062;-60
2022/02/26 10:12:20;;;;;;;8.85;3.72;;;;;;;6.00;100.00;97844.09;4992249;28;20591;-60
2022/02/26 10:14:50;;;;;;;3.97;3.33;;;;;;;5.63;100.00;97846.84;4984904;28;20062;-61
2022/02/26 10:17:26;;;;;;;7.35;3.38;;;;;;;5.26;100.00;97842.63;4987590;28;20085;-63
2022/02/26 10:20:11;;;;;;;9.32;4.15;;;;;;;5.32;100.00;97851.94;4984355;28;20397;-61
2022/02/26 10:22:44;;;;;;;5.22;3.58;;;;;;;5.34;100.00;97852.72;4989011;28;20093;-62
2022/02/26 10:25:14;;;;;;;5.53;3.42;;;;;;;5.18;100.00;97852.66;4986816;28;20034;-61
2022/02/26 10:27:44;;;;;;;6.50;4.25;;;;;;;5.26;100.00;97855.72;4987444;28;20062;-63
2022/02/26 10:30:15;;;;;;;7.78;4.20;;;;;;;5.42;100.00;97855.78;4981998;28;20085;-57
2022/02/26 10:32:44;;;;;;;10.27;3.47;;;;;;;5.08;100.00;97849.66;4986881;28;20984;-62
2022/02/26 10:35:21;;;;;;;6.70;4.07;;;;;;;5.18;100.00;97847.41;4990531;28;20525;-62
2022/02/26 10:37:50;;;;;;;6.78;4.25;;;;;;;5.12;100.00;97851.19;4983786;28;20464;-61
2022/02/26 10:40:23;;;;;;;3.83;3.47;;;;;;;5.39;100.00;97850.72;4992941;28;20077;-57
2022/02/26 10:42:51;;;;;;;13.65;3.22;;;;;;;5.00;100.00;97850.03;4987974;28;20073;-60
2022/02/26 10:45:22;;;;;;;6.78;3.63;;;;;;;5.03;100.00;97842.97;4988859;28;20087;-60
2022/02/26 10:47:59;;;;;;;7.05;4.10;;;;;;;5.51;100.00;97841.41;4986714;28;20779;-59
2022/02/26 10:50:29;;;;;;;6.30;3.70;;;;;;;5.44;100.00;97846.94;4985283;28;20086;-59
2022/02/26 10:52:58;;;;;;;;;;;;;;;5.32;100.00;97836.25;4967112;28;20077;-58
2022/02/26 10:55:51;;;;;;;3.35;3.05;;;;;;;5.34;100.00;97831.81;4958048;28;20008;-62
2022/02/26 10:58:21;;;;;;;3.67;2.65;;;;;;;5.26;100.00;97832.19;4965054;28;20108;-61
2022/02/26 11:00:52;;;;;;;11.55;4.35;;;;;;;5.55;100.00;97840.31;4961962;28;20457;-57
2022/02/26 11:03:21;;;;;;;7.53;3.75;;;;;;;5.62;100.00;97833.84;4959157;28;20089;-59
2022/02/26 11:05:53;;;;;;;7.10;3.35;;;;;;;5.42;100.00;97838.31;4967784;28;20062;-62
2022/02/26 11:08:21;;;;;;;6.65;3.67;;;;;;;5.77;100.00;97838.25;4972003;28;20070;-59
2022/02/26 11:11:09;;;;;;;7.78;3.47;;;;;;;5.84;100.00;97831.78;4966644;28;20077;-60
2022/02/26 11:13:39;;;;;;;7.75;3.90;;;;;;;6.31;100.00;97836.25;4964807;28;20046;-62
2022/02/26 11:16:09;;;;;;;7.13;3.45;;;;;;;6.20;100.00;97829.94;4966325;28;20088;-59
2022/02/26 11:18:42;;;;;;;8.55;3.53;;;;;;;6.06;100.00;97828.91;4960323;28;20544;-60
2022/02/26 11:21:14;;;;;;;2.60;2.40;;;;;;;5.80;100.00;97822.41;4974401;28;20068;-59
2022/02/26 11:23:47;;;;;;;6.60;3.30;;;;;;;6.33;100.00;97823.94;4992659;28;20065;-57
2022/02/26 11:26:16;;;;;;;6.90;3.00;;;;;;;6.06;100.00;97818.41;4982290;28;20066;-61
2022/02/26 11:28:49;;;;;;;8.10;4.20;;;;;;;6.37;100.00;97825.44;4989431;28;20528;-64
2022/02/26 11:31:23;;;;;;;10.25;3.63;;;;;;;6.32;100.00;97818.75;4990495;28;20509;-61
2022/02/26 11:33:52;;;;;;;9.80;3.70;;;;;;;6.19;99.56;97810.72;5000826;28;20069;-55
2022/02/26 11:36:22;;;;;;;4.40;3.08;;;;;;;6.53;100.00;97811.47;4989750;28;20649;-61
2022/02/26 11:38:57;;;;;;;4.40;3.45;;;;;;;6.48;96.42;97806.50;4982401;28;20058;-59
2022/02/26 11:41:33;;;;;;;8.32;3.22;;;;;;;6.53;77.38;97798.38;5007494;28;20065;-58
2022/02/26 11:44:02;;;;;;;6.70;3.05;;;;;;;6.71;75.95;97796.47;4988830;28;20554;-60
2022/02/26 11:46:34;;;;;;;5.65;3.00;;;;;;;6.44;76.33;97791.03;4985575;28;20538;-61